Time;durP1;ratioP1;P1;durP2;ratioP2;P2;SDS_P1;SDS_P2;PMS_P1;PMS_P2;Temp;Humidity;BMP_temperature;BMP_pressure;BME280_temperature;BME280_humidity;BME280_pressure;Samples;Min_cycle;Max_cycle;Signal;HPM_P1;HPM_P2
2023/04/19 09:36:31;;;;;;;10.13;8.68;;;18.70;1.00;;;;;;5059671;28;20832;-63
2023/04/19 09:38:57;;;;;;;11.30;7.88;;;18.20;1.00;;;;;;5059809;27;20040;-66
2023/04/19 09:41:26;;;;;;;10.77;8.93;;;18.20;1.00;;;;;;5057770;28;20032;-61
2023/04/19 09:43:52;;;;;;;9.88;7.43;;;18.40;1.00;;;;;;5061858;27;20552;-71
2023/04/19 09:46:35;;;;;;;9.30;7.38;;;18.50;1.00;;;;;;5056537;28;20050;-59
2023/04/19 09:49:18;;;;;;;9.18;8.15;;;18.60;1.00;;;;;;5051803;28;20506;-60
2023/04/19 09:51:46;;;;;;;9.00;7.10;;;18.60;1.00;;;;;;5047292;28;20022;-64
2023/04/19 09:54:14;;;;;;;11.43;7.45;;;18.70;1.00;;;;;;5052424;28;20127;-64
2023/04/19 09:56:41;;;;;;;8.95;7.47;;;18.80;1.00;;;;;;5047212;28;20098;-64
2023/04/19 09:59:09;;;;;;;9.73;7.93;;;18.90;1.00;;;;;;5052635;28;20048;-64
2023/04/19 10:01:44;;;;;;;9.43;6.82;;;18.90;1.00;;;;;;5051844;28;20021;-56
2023/04/19 10:04:12;;;;;;;7.53;6.53;;;19.00;1.00;;;;;;5052036;28;20070;-57
2023/04/19 10:06:39;;;;;;;10.38;7.40;;;19.10;1.00;;;;;;5047271;28;20778;-61
2023/04/19 10:09:07;;;;;;;8.73;6.20;;;19.20;1.00;;;;;;5051332;27;20055;-61
2023/04/19 10:11:39;;;;;;;7.70;7.00;;;19.30;1.00;;;;;;5048011;28;20020;-60
2023/04/19 10:14:08;;;;;;;7.45;6.75;;;19.30;1.00;;;;;;5049344;28;20033;-60
2023/04/19 10:16:35;;;;;;;6.18;5.57;;;19.30;1.00;;;;;;5050967;28;20024;-61
2023/04/19 10:19:07;;;;;;;12.40;6.63;;;19.50;1.00;;;;;;5051545;28;20125;-62
2023/04/19 10:21:33;;;;;;;9.05;7.18;;;19.50;1.00;;;;;;5043642;28;20041;-62
2023/04/19 10:23:59;;;;;;;9.77;7.05;;;19.50;1.00;;;;;;5050636;28;20055;-62
2023/04/19 10:26:26;;;;;;;9.35;8.00;;;19.50;1.00;;;;;;5052259;28;20044;-63
2023/04/19 10:28:55;;;;;;;9.07;8.18;;;19.60;1.00;;;;;;5048419;28;20678;-63
2023/04/19 10:31:22;;;;;;;8.43;7.32;;;19.70;1.00;;;;;;5047940;28;20066;-63
2023/04/19 10:33:50;;;;;;;9.60;6.65;;;19.90;1.00;;;;;;5047102;28;20065;-63
2023/04/19 10:36:16;;;;;;;10.73;8.35;;;19.90;1.00;;;;;;5050886;28;20069;-61
2023/04/19 10:38:54;;;;;;;12.10;8.65;;;19.90;1.00;;;;;;5049322;28;20025;-63
2023/04/19 10:41:20;;;;;;;9.52;8.60;;;20.00;1.00;;;;;;5047014;28;20029;-58
2023/04/19 10:43:46;;;;;;;9.50;8.48;;;20.20;1.00;;;;;;5048893;28;20348;-54
2023/04/19 10:46:21;;;;;;;13.20;7.50;;;20.20;1.00;;;;;;5046125;28;20044;-62
2023/04/19 10:48:59;;;;;;;16.92;8.55;;;20.40;1.00;;;;;;5036927;28;20033;-61
2023/04/19 10:51:42;;;;;;;8.82;7.93;;;20.40;1.00;;;;;;5037007;28;20044;-58
2023/04/19 10:54:27;;;;;;;12.60;9.13;;;20.40;1.00;;;;;;5033226;28;20104;-61
2023/04/19 10:57:49;;;;;;;9.00;7.90;;;20.40;1.00;;;;;;5036208;28;20098;-61
2023/04/19 11:00:30;;;;;;;9.00;8.10;;;20.50;1.00;;;;;;5036315;28;20056;-61
2023/04/19 11:02:55;;;;;;;14.90;8.27;;;20.60;1.00;;;;;;5038780;28;20057;-61
2023/04/19 11:05:24;;;;;;;8.57;7.45;;;20.60;1.00;;;;;;5036247;28;20131;-61
2023/04/19 11:07:50;;;;;;;7.70;6.82;;;20.70;1.00;;;;;;5035639;28;20025;-61
2023/04/19 11:10:28;;;;;;;9.68;6.03;;;20.70;1.00;;;;;;5036549;28;20047;-61
2023/04/19 11:12:54;;;;;;;7.47;6.25;;;20.80;1.00;;;;;;5035833;28;20129;-61
2023/04/19 11:15:22;;;;;;;8.50;7.05;;;20.90;1.00;;;;;;5036930;28;20124;-61
2023/04/19 11:17:52;;;;;;;10.20;6.35;;;21.10;1.00;;;;;;5036032;28;20049;-60
2023/04/19 11:20:22;;;;;;;9.02;6.63;;;21.20;1.00;;;;;;5033583;28;20903;-61
2023/04/19 11:22:48;;;;;;;9.68;6.95;;;21.30;1.00;;;;;;5040058;28;20033;-61
2023/04/19 11:25:19;;;;;;;9.93;7.20;;;21.30;1.00;;;;;;5040144;28;20072;-61
2023/04/19 11:27:49;;;;;;;10.60;8.73;;;21.40;1.00;;;;;;5037966;28;20493;-61
2023/04/19 11:30:28;;;;;;;11.18;9.15;;;21.50;1.00;;;;;;5051087;28;20029;-62
2023/04/19 11:32:57;;;;;;;9.70;8.15;;;21.60;1.00;;;;;;5049549;28;20029;-60
2023/04/19 11:35:25;;;;;;;9.88;7.47;;;21.70;1.00;;;;;;5042500;28;20147;-60
2023/04/19 11:37:53;;;;;;;8.95;7.03;;;21.80;1.00;;;;;;5046864;28;20025;-61
2023/04/19 11:40:20;;;;;;;7.20;6.50;;;21.90;1.00;;;;;;5041702;28;20071;-62
2023/04/19 11:42:52;;;;;;;9.40;8.40;;;22.00;1.00;;;;;;5049413;28;20482;-59
2023/04/19 11:45:37;;;;;;;8.35;6.95;;;22.20;1.00;;;;;;5048742;28;20510;-63
2023/04/19 11:48:22;;;;;;;10.85;8.98;;;22.40;1.00;;;;;;5049054;28;20017;-61
2023/04/19 11:50:48;;;;;;;10.98;7.88;;;22.60;1.00;;;;;;5044552;28;20439;-60
2023/04/19 11:53:21;;;;;;;7.35;6.45;;;22.80;1.00;;;;;;5049165;28;20039;-60
2023/04/19 11:55:52;;;;;;;8.02;6.50;;;23.00;1.00;;;;;;5043505;28;20064;-60
2023/04/19 11:58:34;;;;;;;8.85;6.85;;;23.20;1.00;;;;;;5046524;28;20062;-60
2023/04/19 12:01:08;;;;;;;12.50;8.57;;;23.50;1.00;;;;;;5048119;28;20037;-60
2023/04/19 12:03:55;;;;;;;9.35;8.43;;;24.80;1.00;;;;;;5050344;28;20147;-60
2023/04/19 12:06:26;;;;;;;11.98;6.47;;;31.20;99.90;;;;;;5045909;28;20027;-60
2023/04/19 12:08:53;;;;;;;6.88;6.22;;;35.30;99.90;;;;;;5037078;28;20025;-61
2023/04/19 12:11:25;;;;;;;7.25;6.63;;;37.30;99.90;;;;;;5033250;28;20117;-61
2023/04/19 12:14:12;;;;;;;7.40;6.50;;;38.80;99.90;;;;;;5050059;28;20035;-61
2023/04/19 12:16:38;;;;;;;10.95;6.60;;;39.20;99.90;;;;;;5035912;28;20087;-61
2023/04/19 12:19:19;;;;;;;6.88;6.28;;;40.30;99.90;;;;;;5046229;28;20024;-61
2023/04/19 12:21:45;;;;;;;7.95;7.22;;;41.80;99.90;;;;;;5031284;28;20041;-61
2023/04/19 12:24:14;;;;;;;8.77;7.90;;;43.00;99.90;;;;;;5045701;28;20033;-61
2023/04/19 12:26:56;;;;;;;9.48;7.85;;;44.20;99.90;;;;;;5050324;28;20545;-61
2023/04/19 12:29:22;;;;;;;7.22;6.53;;;45.20;99.90;;;;;;5048242;28;20040;-61
2023/04/19 12:31:48;;;;;;;9.32;8.32;;;44.60;99.90;;;;;;5048922;28;20029;-61
2023/04/19 12:34:13;;;;;;;8.10;7.40;;;44.80;99.90;;;;;;5049266;28;20545;-63
2023/04/19 12:36:39;;;;;;;6.80;6.20;;;43.90;99.90;;;;;;5047461;28;20430;-64
2023/04/19 12:39:06;;;;;;;6.35;5.85;;;43.20;99.90;;;;;;5049521;28;20025;-54
2023/04/19 12:41:31;;;;;;;6.55;5.85;;;43.90;99.90;;;;;;5050395;28;20083;-52
2023/04/19 12:43:57;;;;;;;7.35;6.70;;;44.70;99.90;;;;;;5048913;28;20024;-49
2023/04/19 12:46:23;;;;;;;6.05;5.55;;;44.70;99.90;;;;;;5041537;28;20108;-47
2023/04/19 12:48:48;;;;;;;5.88;5.20;;;43.60;99.90;;;;;;5050475;28;20515;-60
2023/04/19 12:51:14;;;;;;;5.40;4.78;;;42.40;99.90;;;;;;5043782;28;20051;-59
2023/04/19 12:53:41;;;;;;;5.60;5.10;;;38.30;99.90;;;;;;5042126;28;20032;-60
2023/04/19 12:56:06;;;;;;;5.20;4.80;;;37.10;99.90;;;;;;5045400;28;20021;-59
2023/04/19 12:58:32;;;;;;;5.10;4.75;;;37.00;99.90;;;;;;5049271;28;20062;-60
2023/04/19 13:00:58;;;;;;;4.88;4.47;;;39.40;99.90;;;;;;5049990;28;20499;-60
2023/04/19 13:03:24;;;;;;;4.90;4.50;;;43.10;99.90;;;;;;5045257;28;20021;-61
2023/04/19 13:05:49;;;;;;;5.68;5.22;;;45.00;99.90;;;;;;5046725;28;20025;-62
2023/04/19 13:08:15;;;;;;;6.00;5.50;;;46.60;99.90;;;;;;5045218;28;20142;-62
2023/04/19 13:10:41;;;;;;;6.07;5.57;;;46.30;99.90;;;;;;5049017;28;20032;-62
2023/04/19 13:13:07;;;;;;;6.07;5.45;;;46.20;99.90;;;;;;5044838;28;20041;-59
2023/04/19 13:15:35;;;;;;;6.00;5.60;;;46.80;99.90;;;;;;5045817;28;20347;-59
2023/04/19 13:18:01;;;;;;;6.15;5.75;;;47.00;99.90;;;;;;5048188;28;20025;-58
2023/04/19 13:20:27;;;;;;;6.25;5.72;;;47.70;99.90;;;;;;5048300;28;20032;-58
2023/04/19 13:22:53;;;;;;;5.68;5.10;;;47.60;99.90;;;;;;5046197;28;20141;-57
2023/04/19 13:25:19;;;;;;;6.55;6.05;;;48.20;99.90;;;;;;5040307;28;20112;-53
2023/04/19 13:27:45;;;;;;;6.25;5.60;;;47.60;99.90;;;;;;5044338;28;20022;-59
2023/04/19 13:30:12;;;;;;;6.50;5.95;;;47.80;99.90;;;;;;5042508;28;20024;-60
2023/04/19 13:32:37;;;;;;;6.32;5.70;;;48.50;99.90;;;;;;5046709;28;20026;-49
2023/04/19 13:35:03;;;;;;;6.22;5.65;;;47.80;99.90;;;;;;5048935;28;20095;-55
2023/04/19 13:37:29;;;;;;;6.05;5.55;;;47.50;99.90;;;;;;5049531;28;20028;-54
2023/04/19 13:39:55;;;;;;;6.40;6.00;;;47.40;99.90;;;;;;5043901;28;20394;-55
2023/04/19 13:42:22;;;;;;;6.13;5.53;;;46.90;99.90;;;;;;5035459;28;20025;-55
2023/04/19 13:45:03;;;;;;;6.72;6.13;;;45.60;99.90;;;;;;5046594;28;20378;-65
2023/04/19 13:47:29;;;;;;;6.70;6.20;;;43.80;99.90;;;;;;5044102;28;20068;-62
2023/04/19 13:49:54;;;;;;;10.15;9.38;;;42.70;99.90;;;;;;5043065;28;20040;-56
2023/04/19 13:52:22;;;;;;;7.53;6.90;;;42.80;99.90;;;;;;5041295;28;20031;-66
2023/04/19 13:54:48;;;;;;;6.82;6.22;;;43.20;99.90;;;;;;5045500;28;20022;-68
2023/04/19 13:57:14;;;;;;;7.72;7.13;;;43.00;99.90;;;;;;5043545;28;20038;-65
2023/04/19 13:59:39;;;;;;;8.13;6.82;;;40.70;99.90;;;;;;5044497;28;20398;-61
2023/04/19 14:02:05;;;;;;;7.78;7.07;;;39.00;99.90;;;;;;5049386;28;20051;-66
2023/04/19 14:04:31;;;;;;;8.85;8.05;;;38.20;99.90;;;;;;5047394;28;20029;-63
2023/04/19 14:06:57;;;;;;;7.93;7.10;;;37.60;99.90;;;;;;5045989;28;20021;-65
2023/04/19 14:09:23;;;;;;;6.85;5.78;;;37.40;99.90;;;;;;5042699;28;20363;-63
2023/04/19 14:11:49;;;;;;;8.60;7.05;;;36.60;99.90;;;;;;5041183;28;20025;-60
2023/04/19 14:14:15;;;;;;;9.70;6.90;;;36.10;99.90;;;;;;5045367;28;20025;-57
2023/04/19 14:16:41;;;;;;;9.40;8.55;;;36.10;99.90;;;;;;5043322;28;20037;-60
2023/04/19 14:19:06;;;;;;;8.00;7.30;;;35.50;99.90;;;;;;5044694;28;20564;-61
2023/04/19 14:21:32;;;;;;;9.50;8.73;;;36.00;99.90;;;;;;5048023;28;20056;-63
2023/04/19 14:23:58;;;;;;;9.60;8.35;;;36.10;99.90;;;;;;5052810;28;20078;-74
2023/04/19 14:26:26;;;;;;;10.10;8.73;;;35.40;99.90;;;;;;5054546;28;20064;-63
2023/04/19 14:28:51;;;;;;;9.85;8.95;;;35.30;99.90;;;;;;5043195;28;20120;-62
2023/04/19 14:31:17;;;;;;;9.07;8.43;;;34.40;99.90;;;;;;5053133;28;20463;-64
2023/04/19 14:33:43;;;;;;;9.05;8.27;;;34.30;99.90;;;;;;5049022;28;20045;-67
2023/04/19 14:36:09;;;;;;;10.02;8.73;;;35.00;99.90;;;;;;5047105;28;20563;-64
2023/04/19 14:38:35;;;;;;;9.93;9.13;;;36.30;99.90;;;;;;5049443;28;20020;-68
2023/04/19 14:41:02;;;;;;;9.45;8.57;;;37.10;99.90;;;;;;5049383;28;20021;-62
2023/04/19 14:43:28;;;;;;;9.63;8.50;;;36.10;99.90;;;;;;5051200;28;20562;-63
2023/04/19 14:45:54;;;;;;;8.75;7.88;;;35.10;99.90;;;;;;5047308;28;20032;-62
2023/04/19 14:48:20;;;;;;;7.47;6.85;;;34.60;99.90;;;;;;5049003;28;20050;-69
2023/04/19 14:50:45;;;;;;;7.70;7.00;;;34.50;99.90;;;;;;5044854;28;20488;-70
2023/04/19 14:53:11;;;;;;;11.60;8.10;;;35.00;99.90;;;;;;5052923;28;20021;-60
2023/04/19 14:55:37;;;;;;;8.18;7.50;;;37.10;99.90;;;;;;5049344;28;20033;-59
2023/04/19 14:58:09;;;;;;;9.02;6.72;;;39.60;99.90;;;;;;5048353;28;20390;-68
2023/04/19 15:00:35;;;;;;;8.38;7.78;;;40.80;99.90;;;;;;5046279;28;20035;-63
2023/04/19 15:03:01;;;;;;;7.20;6.53;;;40.80;99.90;;;;;;5051322;28;20096;-65
2023/04/19 15:05:27;;;;;;;8.98;8.02;;;41.20;99.90;;;;;;5049104;28;20124;-65
2023/04/19 15:07:52;;;;;;;8.68;7.88;;;40.50;99.90;;;;;;5037385;28;20022;-63
2023/04/19 15:10:18;;;;;;;8.65;7.85;;;39.60;99.90;;;;;;5045302;28;20489;-63
2023/04/19 15:12:44;;;;;;;7.25;6.65;;;39.00;99.90;;;;;;5046409;28;20031;-63
2023/04/19 15:15:10;;;;;;;8.52;7.72;;;38.10;99.90;;;;;;5047554;28;20083;-63
2023/04/19 15:17:36;;;;;;;8.70;7.68;;;36.40;99.90;;;;;;5038603;28;20013;-63
2023/04/19 15:20:02;;;;;;;6.95;6.35;;;35.30;99.90;;;;;;5044230;28;20025;-63
2023/04/19 15:22:28;;;;;;;7.35;6.60;;;35.00;99.90;;;;;;5053097;28;20098;-63
2023/04/19 15:25:03;;;;;;;9.00;7.53;;;34.50;99.90;;;;;;5050196;28;20505;-63
2023/04/19 15:27:29;;;;;;;7.60;6.90;;;34.20;99.90;;;;;;5044549;28;20029;-63
2023/04/19 15:29:54;;;;;;;8.35;7.60;;;34.00;99.90;;;;;;5052521;28;20024;-63
2023/04/19 15:32:20;;;;;;;7.32;6.68;;;33.60;99.90;;;;;;5045350;28;20090;-63
2023/04/19 15:34:46;;;;;;;7.72;6.30;;;33.30;99.90;;;;;;5045225;28;20068;-63
2023/04/19 15:37:11;;;;;;;6.35;5.82;;;32.50;99.90;;;;;;5049644;28;20031;-63
2023/04/19 15:39:37;;;;;;;6.70;6.03;;;32.60;99.90;;;;;;5035524;28;20418;-62
2023/04/19 15:42:02;;;;;;;6.70;5.68;;;32.40;99.90;;;;;;5046716;28;20047;-62
2023/04/19 15:44:28;;;;;;;6.35;5.68;;;32.40;99.90;;;;;;5045223;28;20030;-62
2023/04/19 15:46:54;;;;;;;7.78;6.50;;;32.40;99.90;;;;;;5051530;28;20081;-62
2023/04/19 15:49:20;;;;;;;9.00;6.88;;;32.70;99.90;;;;;;5050451;28;20082;-62
2023/04/19 15:52:10;;;;;;;7.63;6.47;;;32.70;99.90;;;;;;5044385;28;20032;-63
2023/04/19 15:54:36;;;;;;;6.72;5.68;;;32.20;99.90;;;;;;5049668;28;20032;-63
2023/04/19 15:57:02;;;;;;;6.28;5.45;;;31.90;99.90;;;;;;5044335;28;20028;-63
2023/04/19 15:59:28;;;;;;;6.80;5.50;;;31.50;99.90;;;;;;5049493;28;20021;-63
2023/04/19 16:01:53;;;;;;;6.50;5.72;;;31.20;99.90;;;;;;5046219;28;20047;-63
2023/04/19 16:04:19;;;;;;;6.93;6.22;;;31.60;99.90;;;;;;5044444;28;20025;-63
2023/04/19 16:06:45;;;;;;;6.45;5.43;;;31.60;99.90;;;;;;5039254;28;20365;-63
2023/04/19 16:09:11;;;;;;;4.90;4.35;;;31.30;99.90;;;;;;5043608;28;20032;-63
2023/04/19 16:11:37;;;;;;;5.80;4.78;;;30.60;99.90;;;;;;5050219;28;20025;-63
2023/04/19 16:14:03;;;;;;;6.35;5.68;;;30.80;99.90;;;;;;5044917;28;20096;-63
2023/04/19 16:16:31;;;;;;;6.28;5.40;;;31.10;99.90;;;;;;5045234;28;20166;-63
2023/04/19 16:18:57;;;;;;;6.22;5.47;;;30.70;99.90;;;;;;5040149;28;20032;-64
2023/04/19 16:21:25;;;;;;;5.90;5.40;;;30.10;99.90;;;;;;5049721;28;20017;-64
2023/04/19 16:23:50;;;;;;;5.70;5.28;;;29.90;99.90;;;;;;5045035;28;20033;-61
2023/04/19 16:26:16;;;;;;;5.05;4.57;;;29.90;99.90;;;;;;5035640;28;20117;-68
2023/04/19 16:28:41;;;;;;;10.20;4.78;;;29.70;99.90;;;;;;5036362;28;20421;-67
2023/04/19 16:31:07;;;;;;;6.57;4.78;;;29.80;99.90;;;;;;5030035;28;20026;-67
2023/04/19 16:33:33;;;;;;;5.30;4.72;;;29.80;99.90;;;;;;5029086;28;20079;-67
2023/04/19 16:35:58;;;;;;;6.72;5.22;;;29.20;99.90;;;;;;5043269;28;20498;-66
2023/04/19 16:38:24;;;;;;;5.72;5.22;;;28.60;99.90;;;;;;5042788;28;20017;-66
2023/04/19 16:40:50;;;;;;;10.27;5.60;;;28.20;99.90;;;;;;5042151;28;20069;-65
2023/04/19 16:43:15;;;;;;;5.75;5.00;;;27.90;99.90;;;;;;5041312;28;20363;-66
2023/04/19 16:45:41;;;;;;;6.22;5.20;;;27.60;99.90;;;;;;5038955;28;20562;-66
2023/04/19 16:48:07;;;;;;;7.57;4.55;;;27.40;99.90;;;;;;5043914;28;20041;-65
2023/04/19 16:50:33;;;;;;;6.38;4.75;;;27.20;99.90;;;;;;5041570;28;20025;-66
2023/04/19 16:52:59;;;;;;;7.80;4.82;;;27.00;99.90;;;;;;5046981;28;20437;-65
2023/04/19 16:55:24;;;;;;;6.63;5.25;;;26.80;99.90;;;;;;5039002;28;20068;-65
2023/04/19 16:57:52;;;;;;;5.75;4.38;;;26.70;99.90;;;;;;5040067;28;20021;-66
2023/04/19 17:00:18;;;;;;;4.88;4.22;;;26.60;99.90;;;;;;5040502;28;20051;-66
2023/04/19 17:02:44;;;;;;;6.45;5.30;;;26.40;99.90;;;;;;5036289;28;20048;-66
2023/04/19 17:05:11;;;;;;;5.25;3.70;;;26.30;99.90;;;;;;5049116;28;20513;-66
2023/04/19 17:07:37;;;;;;;5.28;3.80;;;26.20;99.90;;;;;;5046252;28;20013;-67
2023/04/19 17:10:03;;;;;;;8.77;4.30;;;26.10;99.90;;;;;;5049623;28;20032;-59
2023/04/19 17:12:28;;;;;;;9.93;6.50;;;25.90;99.90;;;;;;5040105;28;20025;-59
2023/04/19 17:14:54;;;;;;;9.43;7.13;;;25.80;99.90;;;;;;5042187;28;20056;-59
2023/04/19 17:17:20;;;;;;;5.47;4.35;;;25.80;99.90;;;;;;5041504;28;20100;-60
2023/04/19 17:19:46;;;;;;;8.20;5.00;;;25.60;99.90;;;;;;5044839;28;20097;-59
2023/04/19 17:22:13;;;;;;;7.88;4.97;;;25.50;99.90;;;;;;5045987;28;20026;-59
2023/04/19 17:24:40;;;;;;;5.60;4.05;;;25.40;99.90;;;;;;5044161;28;20394;-59
2023/04/19 17:27:06;;;;;;;6.32;4.07;;;25.40;99.90;;;;;;5043256;28;21337;-60
2023/04/19 17:29:31;;;;;;;9.25;4.05;;;25.40;99.90;;;;;;5048397;28;20112;-59
2023/04/19 17:31:58;;;;;;;4.93;3.08;;;25.30;99.90;;;;;;5039235;28;20420;-59
2023/04/19 17:34:24;;;;;;;5.10;3.30;;;25.20;99.90;;;;;;5035314;28;20048;-59
2023/04/19 17:36:49;;;;;;;5.07;3.95;;;25.00;99.90;;;;;;5043394;28;20025;-59
2023/04/19 17:39:15;;;;;;;8.50;4.65;;;24.90;99.90;;;;;;5045197;28;20029;-59
2023/04/19 17:41:41;;;;;;;9.60;5.22;;;24.80;99.90;;;;;;5047380;28;20104;-60
2023/04/19 17:44:07;;;;;;;10.18;5.32;;;24.80;99.90;;;;;;5047820;28;20025;-61
2023/04/19 17:46:32;;;;;;;5.78;3.53;;;24.70;99.90;;;;;;5044032;28;20033;-64
2023/04/19 17:48:58;;;;;;;10.07;3.92;;;24.70;99.90;;;;;;5036148;28;20036;-64
2023/04/19 17:51:24;;;;;;;5.63;3.03;;;24.70;99.90;;;;;;5035532;28;20025;-63
2023/04/19 17:53:50;;;;;;;5.70;4.15;;;24.70;99.90;;;;;;5038381;28;20067;-64
2023/04/19 17:56:16;;;;;;;3.65;2.70;;;24.60;99.90;;;;;;5037331;28;20100;-64
2023/04/19 17:58:41;;;;;;;5.68;3.50;;;24.40;99.90;;;;;;5048854;28;20025;-64
2023/04/19 18:01:09;;;;;;;7.93;3.10;;;24.10;99.90;;;;;;5041445;28;20060;-65
2023/04/19 18:03:35;;;;;;;5.20;2.80;;;24.10;99.90;;;;;;5044079;28;20025;-63
2023/04/19 18:06:00;;;;;;;4.90;2.40;;;23.80;99.90;;;;;;5046791;28;20486;-64
2023/04/19 18:08:26;;;;;;;4.35;2.20;;;23.90;99.90;;;;;;5048458;28;20029;-64
2023/04/19 18:14:14;;;;;;;4.40;2.42;;;23.70;99.90;;;;;;5036924;28;20044;-62
2023/04/19 18:16:40;;;;;;;6.32;2.08;;;23.70;99.90;;;;;;5044695;28;20025;-62
2023/04/19 18:19:05;;;;;;;4.82;3.22;;;23.70;99.90;;;;;;5049467;28;20052;-61
2023/04/19 18:21:32;;;;;;;3.33;3.03;;;23.60;99.90;;;;;;5053338;28;20048;-62
2023/04/19 18:23:57;;;;;;;6.15;5.55;;;23.50;99.90;;;;;;5030525;28;20471;-62
2023/04/19 18:26:23;;;;;;;5.65;4.80;;;23.60;99.90;;;;;;5041383;28;20032;-61
2023/04/19 18:28:49;;;;;;;6.90;3.72;;;23.50;99.90;;;;;;5048489;28;20123;-61
2023/04/19 18:31:14;;;;;;;6.93;2.78;;;23.50;99.90;;;;;;5044743;28;20021;-61
2023/04/19 18:33:40;;;;;;;5.75;2.50;;;23.40;99.90;;;;;;5049912;28;20115;-61
2023/04/19 18:36:06;;;;;;;5.50;3.78;;;23.40;99.90;;;;;;5046239;28;20045;-61
2023/04/19 18:38:32;;;;;;;16.38;14.45;;;23.30;99.90;;;;;;5049239;28;20032;-61
2023/04/19 18:40:58;;;;;;;9.55;7.25;;;23.20;99.90;;;;;;5050924;28;20489;-61
2023/04/19 18:43:24;;;;;;;5.18;3.78;;;23.20;99.90;;;;;;5049772;28;20474;-61
2023/04/19 18:45:54;;;;;;;4.53;3.88;;;23.20;99.90;;;;;;5050890;28;20029;-61
2023/04/19 18:48:21;;;;;;;5.15;2.88;;;23.10;99.90;;;;;;5053705;28;20037;-61
2023/04/19 18:50:46;;;;;;;2.70;2.50;;;23.10;99.90;;;;;;5047829;28;20486;-61
2023/04/19 18:53:12;;;;;;;7.00;2.33;;;23.20;99.90;;;;;;5045781;28;20036;-61
2023/04/19 18:55:38;;;;;;;6.75;2.83;;;23.10;99.90;;;;;;5052351;28;20021;-61
2023/04/19 18:58:03;;;;;;;7.43;4.72;;;23.20;99.90;;;;;;5044500;28;20017;-61
2023/04/19 19:00:29;;;;;;;9.60;6.03;;;23.00;99.90;;;;;;5051248;28;20148;-61
2023/04/19 19:02:56;;;;;;;9.57;5.80;;;23.00;1.00;;;;;;5049933;28;20024;-62
2023/04/19 19:05:22;;;;;;;11.45;6.13;;;22.90;1.00;;;;;;5048159;28;20044;-61
2023/04/19 19:07:48;;;;;;;11.52;5.95;;;22.90;1.00;;;;;;5049023;28;20025;-61
2023/04/19 19:10:13;;;;;;;11.70;7.90;;;22.70;1.00;;;;;;5046626;28;20112;-61
2023/04/19 19:12:39;;;;;;;7.82;6.30;;;22.70;1.00;;;;;;5045268;28;20026;-61
2023/04/19 19:15:06;;;;;;;11.85;7.22;;;22.70;1.00;;;;;;5047149;28;20534;-62
2023/04/19 19:17:35;;;;;;;8.48;5.53;;;22.70;1.00;;;;;;5046019;28;20021;-61
2023/04/19 19:20:00;;;;;;;7.50;5.10;;;22.50;1.00;;;;;;5052287;28;20031;-61
2023/04/19 19:22:26;;;;;;;7.72;5.55;;;22.40;1.00;;;;;;5046948;28;20013;-62
2023/04/19 19:24:52;;;;;;;16.00;7.50;;;22.30;1.00;;;;;;5047974;28;20072;-61
2023/04/19 19:27:18;;;;;;;11.43;6.85;;;22.30;1.00;;;;;;5048843;28;20033;-61
2023/04/19 19:29:45;;;;;;;13.55;7.50;;;22.20;1.00;;;;;;5038358;28;20022;-61
2023/04/19 19:32:11;;;;;;;10.80;6.55;;;22.00;1.00;;;;;;5039728;28;20028;-62
2023/04/19 19:34:37;;;;;;;11.18;6.95;;;21.90;1.00;;;;;;5041821;28;20049;-62
2023/04/19 19:37:03;;;;;;;7.38;5.13;;;21.90;1.00;;;;;;5043301;28;20029;-62
2023/04/19 19:39:29;;;;;;;6.07;5.22;;;21.80;1.00;;;;;;5047399;28;20055;-61
2023/04/19 19:41:55;;;;;;;11.07;8.68;;;21.80;1.00;;;;;;5030802;28;20508;-61
2023/04/19 19:44:21;;;;;;;6.45;5.75;;;21.70;1.00;;;;;;5041174;28;20037;-61
2023/04/19 19:46:47;;;;;;;8.07;6.00;;;21.70;1.00;;;;;;5045640;28;20395;-61
2023/04/19 19:49:13;;;;;;;13.38;10.43;;;21.50;1.00;;;;;;5041354;28;20093;-69
2023/04/19 19:51:39;;;;;;;18.73;13.48;;;21.40;1.00;;;;;;5046556;28;20546;-68
2023/04/19 19:54:07;;;;;;;11.65;7.32;;;21.40;1.00;;;;;;5044001;28;20025;-68
2023/04/19 19:56:33;;;;;;;9.63;7.13;;;21.40;1.00;;;;;;5048536;28;20037;-67
2023/04/19 19:58:59;;;;;;;9.93;7.38;;;21.20;1.00;;;;;;5044146;28;20022;-68
2023/04/19 20:01:25;;;;;;;7.78;6.70;;;21.20;1.00;;;;;;5044305;28;20038;-63
2023/04/19 20:04:17;;;;;;;7.18;6.47;;;21.20;1.00;;;;;;5047223;28;20048;-62
2023/04/19 20:06:43;;;;;;;14.15;10.38;;;21.10;1.00;;;;;;5037230;28;20131;-62
2023/04/19 20:09:09;;;;;;;11.00;8.63;;;21.10;1.00;;;;;;5046813;28;20518;-62
2023/04/19 20:11:34;;;;;;;7.45;6.20;;;21.00;1.00;;;;;;5033025;28;20024;-62
2023/04/19 20:14:01;;;;;;;13.00;8.10;;;21.00;1.00;;;;;;5051620;28;20045;-62
2023/04/19 20:16:27;;;;;;;9.77;7.70;;;21.00;1.00;;;;;;5041061;28;20048;-62
2023/04/19 20:18:56;;;;;;;9.60;7.22;;;21.00;1.00;;;;;;5045314;28;20106;-62
2023/04/19 20:21:22;;;;;;;10.98;6.82;;;21.00;1.00;;;;;;5044285;28;20111;-62
2023/04/19 20:23:49;;;;;;;9.10;7.05;;;20.70;1.00;;;;;;5045105;28;20577;-62
2023/04/19 20:26:15;;;;;;;8.15;6.90;;;20.80;1.00;;;;;;5047251;28;20040;-62
2023/04/19 20:28:41;;;;;;;11.55;8.57;;;20.70;1.00;;;;;;5051538;28;20035;-62
2023/04/19 20:31:07;;;;;;;11.18;7.72;;;20.70;1.00;;;;;;5043312;28;20028;-62
2023/04/19 20:33:33;;;;;;;8.88;6.68;;;20.70;1.00;;;;;;5036222;28;20034;-62
2023/04/19 20:36:00;;;;;;;11.55;6.85;;;20.60;1.00;;;;;;5038953;28;20556;-62
2023/04/19 20:38:26;;;;;;;7.82;6.65;;;20.60;1.00;;;;;;5031321;28;20091;-62
2023/04/19 20:40:52;;;;;;;8.05;6.03;;;20.60;1.00;;;;;;5041906;28;20415;-63
2023/04/19 20:43:18;;;;;;;8.18;6.95;;;20.60;1.00;;;;;;5034245;28;20020;-61
2023/04/19 20:45:44;;;;;;;6.30;4.72;;;20.50;1.00;;;;;;5037271;28;20053;-61
2023/04/19 20:48:11;;;;;;;7.60;4.68;;;20.40;1.00;;;;;;5047724;28;20059;-61
2023/04/19 20:50:37;;;;;;;9.15;7.05;;;20.30;1.00;;;;;;5039211;28;20030;-61
2023/04/19 20:53:03;;;;;;;5.47;4.95;;;20.30;1.00;;;;;;5047227;28;20033;-61
2023/04/19 20:55:29;;;;;;;8.65;5.15;;;20.30;1.00;;;;;;5039516;28;20056;-61
2023/04/19 20:57:55;;;;;;;4.15;3.85;;;20.30;1.00;;;;;;5050065;28;20438;-61
2023/04/19 21:00:21;;;;;;;4.32;3.92;;;20.30;1.00;;;;;;5042949;28;20521;-61
2023/04/19 21:02:48;;;;;;;4.55;4.15;;;20.30;1.00;;;;;;5042552;28;20104;-61
2023/04/19 21:05:13;;;;;;;3.88;3.47;;;20.30;1.00;;;;;;5036913;28;20491;-62
2023/04/19 21:07:39;;;;;;;6.03;4.78;;;20.20;1.00;;;;;;5043424;28;20033;-61
2023/04/19 21:10:05;;;;;;;5.72;4.38;;;20.30;1.00;;;;;;5044872;28;20028;-61
2023/04/19 21:12:31;;;;;;;4.55;4.15;;;20.30;1.00;;;;;;5045903;28;20024;-61
2023/04/19 21:14:57;;;;;;;5.07;4.57;;;20.30;1.00;;;;;;5040687;28;20497;-61
2023/04/19 21:17:23;;;;;;;8.35;4.07;;;20.30;1.00;;;;;;5046763;28;20025;-61
2023/04/19 21:19:49;;;;;;;4.80;4.40;;;20.20;1.00;;;;;;5051272;28;20021;-61
2023/04/19 21:22:14;;;;;;;5.30;4.80;;;20.20;1.00;;;;;;5042233;28;20390;-65
2023/04/19 21:24:40;;;;;;;5.22;4.72;;;20.20;1.00;;;;;;5041353;28;20055;-66
2023/04/19 21:27:06;;;;;;;8.90;6.07;;;20.20;1.00;;;;;;5045430;28;20049;-66
2023/04/19 21:29:31;;;;;;;8.32;6.38;;;20.20;1.00;;;;;;5043895;28;20102;-66
2023/04/19 21:31:57;;;;;;;11.27;6.57;;;20.20;1.00;;;;;;5050198;28;20075;-66
2023/04/19 21:34:23;;;;;;;7.43;5.32;;;20.10;1.00;;;;;;5043762;28;20063;-66
2023/04/19 21:36:49;;;;;;;7.20;5.57;;;20.00;1.00;;;;;;5045358;28;20080;-65
2023/04/19 21:39:14;;;;;;;5.78;4.93;;;19.90;1.00;;;;;;5044469;28;20140;-66
2023/04/19 21:41:41;;;;;;;6.63;5.93;;;19.70;1.00;;;;;;5047306;28;20374;-65
2023/04/19 21:44:06;;;;;;;5.72;4.97;;;19.70;1.00;;;;;;5049772;28;20483;-65
2023/04/19 21:46:35;;;;;;;6.07;4.63;;;19.60;1.00;;;;;;5036969;28;20076;-66
2023/04/19 21:49:01;;;;;;;5.40;4.32;;;19.50;1.00;;;;;;5044848;28;20191;-65
2023/04/19 21:51:26;;;;;;;5.63;4.60;;;19.50;1.00;;;;;;5043011;28;20064;-65
2023/04/19 21:53:52;;;;;;;4.57;3.83;;;19.40;1.00;;;;;;5043890;28;20025;-65
2023/04/19 21:56:17;;;;;;;5.55;4.68;;;19.40;1.00;;;;;;5041396;28;20133;-66
2023/04/19 21:58:43;;;;;;;4.60;4.20;;;19.40;1.00;;;;;;5047473;28;20021;-66
2023/04/19 22:01:09;;;;;;;5.68;4.72;;;19.30;1.00;;;;;;5045150;28;20033;-65
2023/04/19 22:03:36;;;;;;;4.63;4.22;;;19.20;1.00;;;;;;5037859;28;20086;-66
2023/04/19 22:06:02;;;;;;;5.97;4.32;;;19.10;1.00;;;;;;5048866;28;20064;-66
2023/04/19 22:08:28;;;;;;;4.50;3.70;;;19.00;1.00;;;;;;5048595;28;20051;-66
2023/04/19 22:10:58;;;;;;;4.22;3.42;;;18.90;1.00;;;;;;5041143;28;20033;-66
2023/04/19 22:13:25;;;;;;;3.58;3.28;;;18.90;1.00;;;;;;5041516;28;20501;-66
2023/04/19 22:15:51;;;;;;;4.05;3.42;;;18.90;1.00;;;;;;5048070;28;20036;-66
2023/04/19 22:18:17;;;;;;;3.53;2.80;;;18.80;1.00;;;;;;5046041;28;20029;-66
2023/04/19 22:20:42;;;;;;;5.95;2.33;;;18.80;1.00;;;;;;5045743;28;20031;-66
2023/04/19 22:23:08;;;;;;;3.28;2.50;;;18.70;1.00;;;;;;5048529;28;20071;-66
2023/04/19 22:25:34;;;;;;;3.03;2.70;;;18.80;1.00;;;;;;5045401;28;20460;-66
2023/04/19 22:27:59;;;;;;;5.43;2.60;;;18.80;1.00;;;;;;5047941;28;20474;-66
2023/04/19 22:30:25;;;;;;;2.35;2.03;;;18.60;1.00;;;;;;5043212;28;20072;-66